createdAt,value
2019-02-04T00:00:45.135Z,23.18
2019-02-04T00:03:15.463Z,22.65
2019-02-04T00:05:44.267Z,22.25
2019-02-04T00:08:13.387Z,22.37
2019-02-04T00:10:43.048Z,21.85
2019-02-04T00:13:11.990Z,24.00
2019-02-04T00:15:40.985Z,19.77
2019-02-04T00:18:10.027Z,24.25
2019-02-04T00:20:38.730Z,24.12
2019-02-04T00:23:07.698Z,27.15
2019-02-04T00:25:36.931Z,23.75
2019-02-04T00:28:05.820Z,26.73
2019-02-04T00:30:34.632Z,27.10
2019-02-04T00:33:03.553Z,23.00
2019-02-04T00:35:32.263Z,26.12
2019-02-04T00:38:00.916Z,22.85
2019-02-04T00:40:30.535Z,25.80
2019-02-04T00:42:59.451Z,23.45
2019-02-04T00:45:28.165Z,26.68
2019-02-04T00:47:56.801Z,24.80
2019-02-04T00:50:25.684Z,29.98
2019-02-04T00:52:54.646Z,32.03
2019-02-04T00:55:24.206Z,28.10
2019-02-04T00:57:52.836Z,29.40
2019-02-04T01:00:24.271Z,35.30
2019-02-04T01:02:53.437Z,33.33
2019-02-04T01:05:22.681Z,26.55
2019-02-04T01:07:51.739Z,27.07
2019-02-04T01:10:22.946Z,29.72
2019-02-04T01:12:51.692Z,33.25
2019-02-04T01:15:20.584Z,29.65
2019-02-04T01:17:49.418Z,34.70
2019-02-04T01:20:23.585Z,31.07
2019-02-04T01:22:52.942Z,33.30
2019-02-04T01:25:21.855Z,30.68
2019-02-04T01:27:50.762Z,29.98
2019-02-04T01:30:20.707Z,38.33
2019-02-04T01:32:49.961Z,33.38
2019-02-04T01:35:18.683Z,32.65
2019-02-04T01:37:48.568Z,34.40
2019-02-04T01:40:19.862Z,33.05
2019-02-04T01:42:48.984Z,34.13
2019-02-04T01:45:17.981Z,33.00
2019-02-04T01:47:46.870Z,32.48
2019-02-04T01:50:17.846Z,32.10
2019-02-04T01:52:46.782Z,39.78
2019-02-04T01:55:15.571Z,31.02
2019-02-04T01:57:44.992Z,32.60
2019-02-04T02:00:19.887Z,33.42
2019-02-04T02:02:48.842Z,31.85
2019-02-04T02:05:17.710Z,33.67
2019-02-04T02:07:46.460Z,29.87
2019-02-04T02:10:17.672Z,33.60
2019-02-04T02:12:46.367Z,29.85
2019-02-04T02:15:15.106Z,32.17
2019-02-04T02:17:44.012Z,33.60
2019-02-04T02:20:15.142Z,32.55
2019-02-04T02:22:43.834Z,32.15
2019-02-04T02:25:12.630Z,35.80
2019-02-04T02:27:41.752Z,33.78
2019-02-04T02:30:13.827Z,30.88
2019-02-04T02:32:42.901Z,36.20
2019-02-04T02:35:11.940Z,34.45
2019-02-04T02:37:40.633Z,31.57
2019-02-04T02:40:13.439Z,34.83
2019-02-04T02:42:42.331Z,29.00
2019-02-04T02:45:11.244Z,32.10
2019-02-04T02:47:40.437Z,31.40
2019-02-04T02:50:09.613Z,30.68
2019-02-04T02:52:38.493Z,28.17
2019-02-04T02:55:09.307Z,27.05
2019-02-04T02:57:38.239Z,34.30
2019-02-04T03:00:09.281Z,26.40
2019-02-04T03:02:38.258Z,32.80
2019-02-04T03:05:09.450Z,29.75
2019-02-04T03:07:38.657Z,22.95
2019-02-04T03:10:09.663Z,34.08
2019-02-04T03:12:38.591Z,28.47
2019-02-04T03:15:08.339Z,27.65
2019-02-04T03:17:37.368Z,31.70
2019-02-04T03:20:07.471Z,32.93
2019-02-04T03:22:36.139Z,28.85
2019-02-04T03:25:05.661Z,29.30
2019-02-04T03:27:34.739Z,21.40
2019-02-04T03:30:03.979Z,26.20
2019-02-04T03:32:32.889Z,25.27
2019-02-04T03:35:01.798Z,28.05
2019-02-04T03:37:30.541Z,29.45
2019-02-04T03:39:59.170Z,26.02
2019-02-04T03:42:28.233Z,30.52
2019-02-04T03:44:57.128Z,29.80
2019-02-04T03:47:26.002Z,29.75
2019-02-04T03:49:55.151Z,26.68
2019-02-04T03:52:24.091Z,30.10
2019-02-04T03:54:52.828Z,24.12
2019-02-04T03:57:21.792Z,27.67
2019-02-04T03:59:50.522Z,37.38
2019-02-04T04:02:19.147Z,31.52
2019-02-04T04:04:48.024Z,34.10
2019-02-04T04:07:16.945Z,37.17
2019-02-04T04:09:46.149Z,30.43
2019-02-04T04:12:14.989Z,31.07
2019-02-04T04:14:43.907Z,31.23
2019-02-04T04:17:12.575Z,34.60
2019-02-04T04:19:41.461Z,36.13
2019-02-04T04:22:10.500Z,33.20
2019-02-04T04:24:39.250Z,34.53
2019-02-04T04:27:08.137Z,33.10
2019-02-04T04:29:37.030Z,31.57
2019-02-04T04:32:06.018Z,32.98
2019-02-04T04:34:34.646Z,32.75
2019-02-04T04:37:03.296Z,21.87
2019-02-04T04:39:32.451Z,26.87
2019-02-04T04:42:01.520Z,20.40
2019-02-04T04:44:30.437Z,23.20
2019-02-04T04:46:59.346Z,32.20
2019-02-04T04:49:28.598Z,21.15
2019-02-04T04:51:57.514Z,29.60
2019-02-04T04:54:27.054Z,24.92
2019-02-04T04:56:56.646Z,21.25
2019-02-04T04:59:25.418Z,21.05
2019-02-04T05:01:54.308Z,25.68
2019-02-04T05:04:23.234Z,30.02
2019-02-04T05:06:52.225Z,29.15
2019-02-04T05:09:21.101Z,23.55
2019-02-04T05:11:49.824Z,22.15
2019-02-04T05:14:18.596Z,26.52
2019-02-04T05:16:47.306Z,31.15
2019-02-04T05:19:15.927Z,36.35
2019-02-04T05:21:44.591Z,33.30
2019-02-04T05:24:13.515Z,28.02
2019-02-04T05:26:43.187Z,32.58
2019-02-04T05:29:11.859Z,29.45
2019-02-04T05:31:40.950Z,31.07
2019-02-04T05:34:09.824Z,36.17
2019-02-04T05:36:38.756Z,32.03
2019-02-04T05:39:08.600Z,29.98
2019-02-04T05:41:37.813Z,30.72
2019-02-04T05:44:06.563Z,34.45
2019-02-04T05:46:35.458Z,35.73
2019-02-04T05:49:04.113Z,34.13
2019-02-04T05:51:33.018Z,35.95
2019-02-04T05:54:01.748Z,30.75
2019-02-04T05:56:31.484Z,33.23
2019-02-04T05:59:00.457Z,37.15
2019-02-04T06:01:29.094Z,34.73
2019-02-04T06:03:57.748Z,37.45
2019-02-04T06:06:26.682Z,31.48
2019-02-04T06:08:56.100Z,44.00
2019-02-04T06:11:25.380Z,39.03
2019-02-04T06:13:54.066Z,41.77
2019-02-04T06:16:22.673Z,33.63
2019-02-04T06:19:00.431Z,37.65
2019-02-04T06:21:22.194Z,35.45
2019-02-04T06:23:52.207Z,32.33
2019-02-04T06:26:21.309Z,38.78
2019-02-04T06:28:50.001Z,37.13
2019-02-04T06:31:18.649Z,39.83
2019-02-04T06:33:47.549Z,46.90
2019-02-04T06:36:16.684Z,41.30
2019-02-04T06:38:45.396Z,39.05
2019-02-04T06:41:14.570Z,38.50
2019-02-04T06:43:43.457Z,31.87
2019-02-04T06:46:12.099Z,40.43
2019-02-04T06:48:41.135Z,39.42
2019-02-04T06:51:09.790Z,42.20
2019-02-04T06:53:38.445Z,36.93
2019-02-04T06:56:07.618Z,40.67
2019-02-04T06:58:36.524Z,36.70
2019-02-04T07:01:05.477Z,37.48
2019-02-04T07:03:34.466Z,42.98
2019-02-04T07:06:03.149Z,37.15
2019-02-04T07:08:32.010Z,34.53
2019-02-04T07:11:01.384Z,38.55
2019-02-04T07:13:30.139Z,38.80
2019-02-04T07:15:58.792Z,41.00
2019-02-04T07:18:27.684Z,37.75
2019-02-04T07:20:57.252Z,38.20
2019-02-04T07:23:25.917Z,37.73
2019-02-04T07:25:54.830Z,34.78
2019-02-04T07:28:23.805Z,37.35
2019-02-04T07:30:53.011Z,38.15
2019-02-04T07:33:21.625Z,35.78
2019-02-04T07:35:50.549Z,31.80
2019-02-04T07:38:19.215Z,33.33
2019-02-04T07:40:47.866Z,38.35
2019-02-04T07:43:16.836Z,35.83
2019-02-04T07:45:45.743Z,36.85
2019-02-04T07:48:14.632Z,39.58
2019-02-04T07:50:43.525Z,34.60
2019-02-04T07:53:12.412Z,36.08
2019-02-04T07:55:41.356Z,26.40
2019-02-04T07:58:10.446Z,32.75
2019-02-04T08:00:39.631Z,28.77
2019-02-04T08:03:08.629Z,27.17
2019-02-04T08:05:37.383Z,35.90
2019-02-04T08:08:06.344Z,21.40
2019-02-04T08:10:35.437Z,25.55
2019-02-04T08:13:04.596Z,26.00
2019-02-04T08:15:35.619Z,26.12
2019-02-04T08:18:05.580Z,22.70
2019-02-04T08:20:34.443Z,24.98
2019-02-04T08:23:03.084Z,20.97
2019-02-04T08:25:31.845Z,24.27
2019-02-04T08:28:00.608Z,24.47
2019-02-04T08:30:31.739Z,32.30
2019-02-04T08:33:00.722Z,17.23
2019-02-04T08:35:30.561Z,22.43
2019-02-04T08:37:59.695Z,17.77
2019-02-04T08:40:28.518Z,17.93
2019-02-04T08:42:57.336Z,18.67
2019-02-04T08:45:26.202Z,12.93
2019-02-04T08:47:55.082Z,17.23
2019-02-04T08:50:24.255Z,13.03
2019-02-04T08:52:53.488Z,19.30
2019-02-04T08:55:22.182Z,11.53
2019-02-04T08:57:51.449Z,12.10
2019-02-04T09:00:21.045Z,13.53
2019-02-04T09:02:50.131Z,9.20
2019-02-04T09:05:18.996Z,14.07
2019-02-04T09:07:48.259Z,12.67
2019-02-04T09:10:29.024Z,9.57
2019-02-04T09:12:58.171Z,10.40
2019-02-04T09:15:26.878Z,6.60
2019-02-04T09:17:55.870Z,13.30
2019-02-04T09:20:25.153Z,5.97
2019-02-04T09:22:54.098Z,9.77
2019-02-04T09:25:23.899Z,9.13
2019-02-04T09:27:53.067Z,9.33
2019-02-04T09:30:23.572Z,9.07
2019-02-04T09:32:52.941Z,9.50
2019-02-04T09:35:21.987Z,7.07
2019-02-04T09:37:51.099Z,8.73
2019-02-04T09:40:23.305Z,8.83
2019-02-04T09:42:52.391Z,7.70
2019-02-04T09:45:24.271Z,13.40
2019-02-04T09:47:51.665Z,7.47
2019-02-04T09:50:22.172Z,6.87
2019-02-04T09:52:51.149Z,12.53
2019-02-04T09:55:22.436Z,12.90
2019-02-04T09:57:51.216Z,12.47
2019-02-04T10:00:22.401Z,7.37
2019-02-04T10:02:51.295Z,7.33
2019-02-04T10:05:20.139Z,7.10
2019-02-04T10:07:49.082Z,8.97
2019-02-04T10:10:20.425Z,6.27
2019-02-04T10:12:52.350Z,4.97
2019-02-04T10:15:25.726Z,6.10
2019-02-04T10:17:54.555Z,7.07
2019-02-04T10:20:33.490Z,9.50
2019-02-04T10:22:53.884Z,7.20
2019-02-04T10:25:24.564Z,8.37
2019-02-04T10:27:53.522Z,8.47
2019-02-04T10:30:23.185Z,6.00
2019-02-04T10:32:51.903Z,7.00
2019-02-04T10:35:20.646Z,5.73
2019-02-04T10:37:50.553Z,7.23
2019-02-04T10:40:21.215Z,10.13
2019-02-04T10:42:49.875Z,6.73
2019-02-04T10:45:19.211Z,8.33
2019-02-04T10:47:48.651Z,6.53
2019-02-04T10:50:45.630Z,9.87
2019-02-04T10:53:08.981Z,8.93
2019-02-04T10:55:37.899Z,7.63
2019-02-04T10:58:08.244Z,6.57
2019-02-04T11:00:37.410Z,11.33
2019-02-04T11:03:06.812Z,8.90
2019-02-04T11:05:36.038Z,6.40
2019-02-04T11:08:05.725Z,8.37
2019-02-04T11:10:35.798Z,8.90
2019-02-04T11:13:14.163Z,9.73
2019-02-04T11:15:43.897Z,9.70
2019-02-04T11:18:13.351Z,11.77
2019-02-04T11:20:42.457Z,13.23
2019-02-04T11:23:11.168Z,11.43
2019-02-04T11:25:40.172Z,9.07
2019-02-04T11:28:10.511Z,11.57
2019-02-04T11:30:51.240Z,15.00
2019-02-04T11:33:20.566Z,14.07
2019-02-04T11:35:49.700Z,13.20
2019-02-04T11:38:18.669Z,11.70
2019-02-04T11:40:47.263Z,11.17
2019-02-04T11:43:16.044Z,13.63
2019-02-04T11:45:44.867Z,13.13
2019-02-04T11:48:14.740Z,14.20
2019-02-04T11:50:43.569Z,12.57
2019-02-04T11:53:12.581Z,16.70
2019-02-04T11:55:41.484Z,15.13
2019-02-04T11:58:10.359Z,13.97
2019-02-04T12:00:41.676Z,14.57
2019-02-04T12:03:12.378Z,15.43
2019-02-04T12:05:41.333Z,12.03
2019-02-04T12:08:10.769Z,13.20
2019-02-04T12:10:42.837Z,15.10
2019-02-04T12:13:12.117Z,12.70
2019-02-04T12:15:41.774Z,16.80
2019-02-04T12:18:10.876Z,15.07
2019-02-04T12:20:40.109Z,16.67
2019-02-04T12:23:09.022Z,13.13
2019-02-04T12:25:38.052Z,14.40
2019-02-04T12:28:07.221Z,15.63
2019-02-04T12:30:38.438Z,17.90
2019-02-04T12:33:09.264Z,18.17
2019-02-04T12:35:37.916Z,17.70
2019-02-04T12:38:06.731Z,20.13
2019-02-04T12:40:36.131Z,15.63
2019-02-04T12:43:04.905Z,19.83
2019-02-04T12:45:34.570Z,18.47
2019-02-04T12:48:03.623Z,17.03
2019-02-04T12:50:32.676Z,18.60
2019-02-04T12:53:01.549Z,17.90
2019-02-04T12:55:30.813Z,18.33
2019-02-04T12:57:59.790Z,23.03
2019-02-04T13:00:29.101Z,19.67
2019-02-04T13:02:57.890Z,23.77
2019-02-04T13:05:30.219Z,19.70
2019-02-04T13:07:59.187Z,22.53
2019-02-04T13:10:27.948Z,21.77
2019-02-04T13:12:56.986Z,20.03
2019-02-04T13:15:26.526Z,21.93
2019-02-04T13:17:55.588Z,42.10
2019-02-04T13:20:24.405Z,20.83
2019-02-04T13:22:53.115Z,19.47
2019-02-04T13:25:23.704Z,18.20
2019-02-04T13:27:52.615Z,20.43
2019-02-04T13:30:23.460Z,24.80
2019-02-04T13:32:52.096Z,24.13
2019-02-04T13:35:20.978Z,22.10
2019-02-04T13:37:49.922Z,12.63
2019-02-04T13:40:24.325Z,18.10
2019-02-04T13:42:53.481Z,19.83
2019-02-04T13:45:22.597Z,24.87
2019-02-04T13:47:51.731Z,29.73
2019-02-04T13:50:20.822Z,15.93
2019-02-04T13:52:50.737Z,22.47
2019-02-04T13:55:25.234Z,16.77
2019-02-04T13:57:54.259Z,20.13
2019-02-04T14:00:23.618Z,20.27
2019-02-04T14:02:59.298Z,22.33
2019-02-04T14:05:23.103Z,22.93
2019-02-04T14:07:52.065Z,20.27
2019-02-04T14:10:26.561Z,23.70
2019-02-04T14:12:55.266Z,22.23
2019-02-04T14:15:24.540Z,22.23
2019-02-04T14:17:53.704Z,19.47
2019-02-04T14:20:23.016Z,22.03
2019-02-04T14:22:53.415Z,13.37
2019-02-04T14:25:22.536Z,15.87
2019-02-04T14:27:51.499Z,21.53
2019-02-04T14:30:23.078Z,19.97
2019-02-04T14:32:52.354Z,21.40
2019-02-04T14:35:21.303Z,18.90
2019-02-04T14:37:50.237Z,19.07
2019-02-04T14:40:19.135Z,19.30
2019-02-04T14:42:50.694Z,19.47
2019-02-04T14:45:30.800Z,17.07
2019-02-04T14:48:12.831Z,21.20
2019-02-04T14:50:56.409Z,17.30
2019-02-04T14:54:12.006Z,15.53
2019-02-04T14:57:21.103Z,16.63
2019-02-04T15:00:03.062Z,18.83
2019-02-04T15:03:19.645Z,17.80
2019-02-04T15:06:15.286Z,17.83
2019-02-04T15:09:08.384Z,19.83
2019-02-04T15:12:13.769Z,19.97
2019-02-04T15:15:00.339Z,21.57
2019-02-04T15:17:55.592Z,21.83
2019-02-04T15:20:54.137Z,13.40
2019-02-04T15:24:09.071Z,19.17
2019-02-04T15:27:06.598Z,18.10
2019-02-04T15:29:46.863Z,15.33
2019-02-04T15:32:46.330Z,20.40
2019-02-04T15:35:51.103Z,19.17
2019-02-04T15:38:52.634Z,19.10
2019-02-04T15:41:42.435Z,15.87
2019-02-04T15:44:36.527Z,17.67
2019-02-04T15:47:15.872Z,15.03
2019-02-04T15:50:06.857Z,17.60
2019-02-04T15:52:45.170Z,19.07
2019-02-04T15:55:10.476Z,17.60
2019-02-04T15:57:39.117Z,17.17
2019-02-04T16:00:08.611Z,15.33
2019-02-04T16:02:37.278Z,17.60
2019-02-04T16:05:07.288Z,14.73
2019-02-04T16:07:36.134Z,16.27
2019-02-04T16:10:07.427Z,16.73
2019-02-04T16:12:36.311Z,15.13
2019-02-04T16:15:05.965Z,15.90
2019-02-04T16:17:34.790Z,17.10
2019-02-04T16:20:04.250Z,15.17
2019-02-04T16:22:33.407Z,12.17
2019-02-04T16:25:02.299Z,15.37
2019-02-04T16:27:31.270Z,15.30
2019-02-04T16:30:00.554Z,15.00
2019-02-04T16:32:29.399Z,14.07
2019-02-04T16:34:58.273Z,12.83
2019-02-04T16:37:27.198Z,13.50
2019-02-04T16:39:56.373Z,14.63
2019-02-04T16:42:25.563Z,15.73
2019-02-04T16:44:54.425Z,14.37
2019-02-04T16:47:23.706Z,14.23
2019-02-04T16:49:52.370Z,14.47
2019-02-04T16:52:21.325Z,15.37
2019-02-04T16:54:50.274Z,14.03
2019-02-04T16:57:18.911Z,12.23
2019-02-04T16:59:48.725Z,13.27
2019-02-04T17:02:17.730Z,16.83
2019-02-04T17:04:46.662Z,12.40
2019-02-04T17:07:15.937Z,16.37
2019-02-04T17:09:45.384Z,11.43
2019-02-04T17:12:14.027Z,13.90
2019-02-04T17:14:42.765Z,10.87
2019-02-04T17:17:11.397Z,10.77
2019-02-04T17:19:40.039Z,13.93
2019-02-04T17:22:08.699Z,14.03
2019-02-04T17:24:38.200Z,14.43
2019-02-04T17:27:07.173Z,15.77
2019-02-04T17:29:36.089Z,12.47
2019-02-04T17:32:04.902Z,12.97
2019-02-04T17:34:34.898Z,11.90
2019-02-04T17:37:03.625Z,14.23
2019-02-04T17:39:33.129Z,12.10
2019-02-04T17:42:02.069Z,13.43
2019-02-04T17:44:31.168Z,12.63
2019-02-04T17:47:00.305Z,12.10
2019-02-04T17:49:29.229Z,14.03
2019-02-04T17:51:58.325Z,13.70
2019-02-04T17:54:27.562Z,12.70
2019-02-04T17:56:56.374Z,16.47
2019-02-04T17:59:25.315Z,11.23
2019-02-04T18:01:54.116Z,12.37
2019-02-04T18:04:23.029Z,13.63
2019-02-04T18:06:51.843Z,11.20
2019-02-04T18:09:21.110Z,14.43
2019-02-04T18:11:50.002Z,13.20
2019-02-04T18:14:18.962Z,9.70
2019-02-04T18:16:47.579Z,9.27
2019-02-04T18:19:16.542Z,12.67
2019-02-04T18:21:45.264Z,9.47
2019-02-04T18:24:15.061Z,11.90
2019-02-04T18:26:44.048Z,14.50
2019-02-04T18:29:12.681Z,11.50
2019-02-04T18:31:41.635Z,11.87
2019-02-04T18:34:10.267Z,10.60
2019-02-04T18:36:39.384Z,11.60
2019-02-04T18:39:09.870Z,12.40
2019-02-04T18:41:38.800Z,10.40
2019-02-04T18:44:07.840Z,14.33
2019-02-04T18:46:37.052Z,10.93
2019-02-04T18:49:05.991Z,7.63
2019-02-04T18:51:34.835Z,11.47
2019-02-04T18:54:03.872Z,12.07
2019-02-04T18:56:32.786Z,10.83
2019-02-04T18:59:01.433Z,11.73
2019-02-04T19:01:30.375Z,10.03
2019-02-04T19:03:59.271Z,10.53
2019-02-04T19:06:28.264Z,10.37
2019-02-04T19:08:56.881Z,13.37
2019-02-04T19:11:25.954Z,11.07
2019-02-04T19:13:54.853Z,10.93
2019-02-04T19:16:23.892Z,11.83
2019-02-04T19:18:52.886Z,12.73
2019-02-04T19:21:21.771Z,9.40
2019-02-04T19:23:50.675Z,12.77
2019-02-04T19:26:19.307Z,8.47
2019-02-04T19:28:50.879Z,9.17
2019-02-04T19:31:21.827Z,13.67
2019-02-04T19:33:50.741Z,9.10
2019-02-04T19:36:19.682Z,11.17
2019-02-04T19:38:48.488Z,9.33
2019-02-04T19:41:17.345Z,9.30
2019-02-04T19:43:46.281Z,10.70
2019-02-04T19:46:14.935Z,9.50
2019-02-04T19:48:43.892Z,7.87
2019-02-04T19:51:12.517Z,9.37
2019-02-04T19:53:41.229Z,11.27
2019-02-04T19:56:09.935Z,9.93
2019-02-04T19:58:38.829Z,11.93
2019-02-04T20:01:07.724Z,7.37
2019-02-04T20:03:37.192Z,10.37
2019-02-04T20:06:06.873Z,13.40
2019-02-04T20:08:35.680Z,10.53
2019-02-04T20:11:04.830Z,9.23
2019-02-04T20:13:33.544Z,14.03
2019-02-04T20:16:02.250Z,6.17
2019-02-04T20:18:31.195Z,8.97
2019-02-04T20:21:00.314Z,6.43
2019-02-04T20:23:29.418Z,8.73
2019-02-04T20:25:58.030Z,7.10
2019-02-04T20:28:26.681Z,10.47
2019-02-04T20:30:55.614Z,8.40
2019-02-04T20:33:24.284Z,7.37
2019-02-04T20:35:53.159Z,7.40
2019-02-04T20:38:29.080Z,9.83
2019-02-04T20:40:57.978Z,10.90
2019-02-04T20:43:26.911Z,6.67
2019-02-04T20:45:55.822Z,8.83
2019-02-04T20:48:24.877Z,7.40
2019-02-04T20:50:53.811Z,9.37
2019-02-04T20:53:23.072Z,7.43
2019-02-04T20:55:51.751Z,12.07
2019-02-04T20:58:20.498Z,12.10
2019-02-04T21:00:49.470Z,9.80
2019-02-04T21:03:18.401Z,10.07
2019-02-04T21:05:47.330Z,12.07
2019-02-04T21:08:16.128Z,6.73
2019-02-04T21:10:44.781Z,9.30
2019-02-04T21:13:13.749Z,11.63
2019-02-04T21:15:42.652Z,9.90
2019-02-04T21:18:11.724Z,11.83
2019-02-04T21:20:40.884Z,9.33
2019-02-04T21:23:10.000Z,9.43
2019-02-04T21:25:39.135Z,6.37
2019-02-04T21:28:07.744Z,9.53
2019-02-04T21:30:39.045Z,10.20
2019-02-04T21:33:08.099Z,9.30
2019-02-04T21:35:37.057Z,8.83
2019-02-04T21:38:06.523Z,7.30
2019-02-04T21:40:35.405Z,6.87
2019-02-04T21:43:04.218Z,6.53
2019-02-04T21:45:32.826Z,6.60
2019-02-04T21:48:01.721Z,7.83
2019-02-04T21:50:30.415Z,8.87
2019-02-04T21:52:59.126Z,8.07
2019-02-04T21:55:28.551Z,9.03
2019-02-04T21:57:57.432Z,8.37
2019-02-04T22:00:31.785Z,9.30
2019-02-04T22:03:00.711Z,8.30
2019-02-04T22:05:30.684Z,10.03
2019-02-04T22:07:59.882Z,7.77
2019-02-04T22:10:29.503Z,8.20
2019-02-04T22:12:58.793Z,7.33
2019-02-04T22:15:27.558Z,7.67
2019-02-04T22:17:56.801Z,7.93
2019-02-04T22:20:26.166Z,8.30
2019-02-04T22:22:55.146Z,10.23
2019-02-04T22:25:24.477Z,9.80
2019-02-04T22:27:53.209Z,9.27
2019-02-04T22:30:24.025Z,9.00
2019-02-04T22:32:53.009Z,11.53
2019-02-04T22:35:22.132Z,9.87
2019-02-04T22:37:50.817Z,7.70
2019-02-04T22:40:25.394Z,8.40
2019-02-04T22:42:54.360Z,8.33
2019-02-04T22:45:23.088Z,8.57
2019-02-04T22:47:51.863Z,12.80
2019-02-04T22:50:25.534Z,8.20
2019-02-04T22:52:54.300Z,7.40
2019-02-04T22:55:31.793Z,9.07
2019-02-04T22:57:54.596Z,8.10
2019-02-04T23:00:50.009Z,7.63
2019-02-04T23:03:20.624Z,6.20
2019-02-04T23:05:50.142Z,9.30
2019-02-04T23:08:18.864Z,5.47
2019-02-04T23:10:47.620Z,8.23
2019-02-04T23:13:16.247Z,10.53
2019-02-04T23:15:45.202Z,11.30
2019-02-04T23:18:14.883Z,11.70
2019-02-04T23:20:43.879Z,7.97
2019-02-04T23:23:12.723Z,8.90
2019-02-04T23:25:43.616Z,8.47
2019-02-04T23:28:12.067Z,8.67
2019-02-04T23:30:40.741Z,8.60
2019-02-04T23:33:09.736Z,11.37
2019-02-04T23:35:38.729Z,7.60
2019-02-04T23:38:07.444Z,10.67
2019-02-04T23:40:36.073Z,8.33
2019-02-04T23:43:05.769Z,7.30
2019-02-04T23:45:34.428Z,10.47
2019-02-04T23:48:03.057Z,6.77
2019-02-04T23:50:32.250Z,10.93
2019-02-04T23:53:01.155Z,8.20
2019-02-04T23:55:30.150Z,10.60
2019-02-04T23:57:58.765Z,8.27
